Time;durP1;ratioP1;P1;durP2;ratioP2;P2;SDS_P1;SDS_P2;PMS_P1;PMS_P2;Temp;Humidity;BMP_temperature;BMP_pressure;BME280_temperature;BME280_humidity;BME280_pressure;Samples;Min_cycle;Max_cycle;Signal;HPM_P1;HPM_P2
2021/08/17 00:01:59;;;;;;;12.70;8.17;;;;;;;;;;5012800;28;20411;-69
2021/08/17 00:04:25;;;;;;;17.23;8.53;;;;;;;;;;5012034;28;20407;-69
2021/08/17 00:06:51;;;;;;;11.27;7.20;;;;;;;;;;5012876;28;20408;-69
2021/08/17 00:09:18;;;;;;;14.53;8.40;;;;;;;;;;5012340;28;20477;-69
2021/08/17 00:11:44;;;;;;;17.57;8.60;;;;;;;;;;5001768;28;20498;-69
2021/08/17 00:14:10;;;;;;;18.60;9.17;;;;;;;;;;5012375;28;20412;-69
2021/08/17 00:16:36;;;;;;;14.70;8.03;;;;;;;;;;5011806;28;20466;-69
2021/08/17 00:19:02;;;;;;;15.97;7.87;;;;;;;;;;5012673;28;20427;-69
2021/08/17 00:21:28;;;;;;;18.33;8.50;;;;;;;;;;5012440;28;20424;-69
2021/08/17 00:23:56;;;;;;;14.60;8.20;;;;;;;;;;5015981;28;20488;-69
2021/08/17 00:26:22;;;;;;;16.27;8.43;;;;;;;;;;5014695;28;20938;-69
2021/08/17 00:28:48;;;;;;;12.27;7.40;;;;;;;;;;5014696;28;20459;-69
2021/08/17 00:31:14;;;;;;;16.23;8.00;;;;;;;;;;5014418;28;20426;-69
2021/08/17 00:33:40;;;;;;;14.57;8.17;;;;;;;;;;5014943;28;20407;-69
2021/08/17 00:36:07;;;;;;;13.07;8.10;;;;;;;;;;5013966;28;20430;-69
2021/08/17 00:38:35;;;;;;;16.93;7.47;;;;;;;;;;5014586;28;20430;-69
2021/08/17 00:41:01;;;;;;;16.27;8.93;;;;;;;;;;5014051;28;20924;-69
2021/08/17 00:43:27;;;;;;;12.93;8.00;;;;;;;;;;5014692;28;20819;-69
2021/08/17 00:45:53;;;;;;;14.70;7.73;;;;;;;;;;5013075;28;20431;-69
2021/08/17 00:48:19;;;;;;;13.60;8.97;;;;;;;;;;5014737;28;20463;-69
2021/08/17 00:50:46;;;;;;;13.47;8.37;;;;;;;;;;5013904;28;20428;-69
2021/08/17 00:53:13;;;;;;;12.40;6.97;;;;;;;;;;5014909;28;20459;-69
2021/08/17 00:55:40;;;;;;;14.63;8.53;;;;;;;;;;5013781;28;20424;-69
2021/08/17 00:58:06;;;;;;;14.13;7.97;;;;;;;;;;5014368;28;20877;-69
2021/08/17 01:00:32;;;;;;;12.40;7.40;;;;;;;;;;5013425;28;20795;-69
2021/08/17 01:02:58;;;;;;;14.40;7.23;;;;;;;;;;5014476;28;20439;-69
2021/08/17 01:05:27;;;;;;;13.67;7.50;;;;;;;;;;5013730;28;20470;-69
2021/08/17 01:07:53;;;;;;;13.47;8.40;;;;;;;;;;5014341;28;20474;-69
2021/08/17 01:10:19;;;;;;;14.33;7.67;;;;;;;;;;5012874;28;20430;-69
2021/08/17 01:12:45;;;;;;;13.20;7.30;;;;;;;;;;5014384;28;20462;-69
2021/08/17 01:15:12;;;;;;;16.40;7.90;;;;;;;;;;5013594;28;20419;-69
2021/08/17 01:17:39;;;;;;;12.30;6.97;;;;;;;;;;5013885;28;20435;-69
2021/08/17 01:20:06;;;;;;;14.17;8.13;;;;;;;;;;5011813;28;20423;-69
2021/08/17 01:22:32;;;;;;;16.90;7.77;;;;;;;;;;5014074;28;20412;-69
2021/08/17 01:24:58;;;;;;;12.27;8.00;;;;;;;;;;5013322;28;20427;-69
2021/08/17 01:27:24;;;;;;;14.00;7.20;;;;;;;;;;4975999;28;1120437;-69
2021/08/17 01:29:50;;;;;;;12.67;6.70;;;;;;;;;;4994632;28;20662;-69
2021/08/17 01:32:18;;;;;;;12.03;7.87;;;;;;;;;;5013283;28;20435;-69
2021/08/17 01:34:44;;;;;;;14.60;8.10;;;;;;;;;;5014449;28;20450;-69
2021/08/17 01:37:10;;;;;;;13.20;7.67;;;;;;;;;;5014232;28;20478;-69
2021/08/17 01:39:36;;;;;;;13.00;7.00;;;;;;;;;;5014807;28;20489;-69
2021/08/17 01:42:02;;;;;;;15.33;7.17;;;;;;;;;;5014192;28;20434;-69
2021/08/17 01:44:28;;;;;;;16.90;7.47;;;;;;;;;;5014691;28;20457;-69
2021/08/17 01:46:54;;;;;;;14.50;7.30;;;;;;;;;;5013751;28;20517;-69
2021/08/17 01:49:20;;;;;;;13.07;7.37;;;;;;;;;;5014524;28;20424;-69
2021/08/17 01:51:47;;;;;;;10.13;4.23;;;;;;;;;;5025068;28;20519;-69
2021/08/17 01:54:14;;;;;;;5.60;3.63;;;;;;;;;;5034631;28;20453;-69
2021/08/17 01:56:40;;;;;;;6.47;3.67;;;;;;;;;;5018134;28;20797;-70
2021/08/17 01:59:06;;;;;;;5.73;4.17;;;;;;;;;;5013182;28;20951;-70
2021/08/17 02:01:32;;;;;;;5.73;3.30;;;;;;;;;;5021852;28;20427;-70
2021/08/17 02:03:58;;;;;;;6.13;3.17;;;;;;;;;;5034280;28;20748;-70
2021/08/17 02:06:25;;;;;;;4.57;3.63;;;;;;;;;;5022117;28;20938;-70
2021/08/17 02:08:51;;;;;;;7.30;3.27;;;;;;;;;;5014250;28;20509;-70
2021/08/17 02:11:17;;;;;;;6.97;3.50;;;;;;;;;;5020060;28;20434;-70
2021/08/17 02:13:43;;;;;;;5.00;2.80;;;;;;;;;;5034359;28;20807;-70
2021/08/17 02:16:09;;;;;;;5.07;3.07;;;;;;;;;;5025607;28;20415;-70
2021/08/17 02:18:35;;;;;;;4.60;3.10;;;;;;;;;;5033843;28;20426;-70
2021/08/17 02:21:02;;;;;;;5.50;3.63;;;;;;;;;;5027272;28;20481;-70
2021/08/17 02:23:29;;;;;;;7.17;3.37;;;;;;;;;;5014265;28;20783;-70
2021/08/17 02:25:55;;;;;;;4.10;2.57;;;;;;;;;;5015426;28;20477;-69
2021/08/17 02:28:21;;;;;;;4.73;2.70;;;;;;;;;;5033898;28;20590;-70
2021/08/17 02:30:48;;;;;;;4.53;2.30;;;;;;;;;;5031754;28;20403;-69
2021/08/17 02:33:14;;;;;;;5.63;3.03;;;;;;;;;;5033865;28;20413;-70
2021/08/17 02:35:41;;;;;;;3.57;2.00;;;;;;;;;;5020340;28;20423;-69
2021/08/17 02:38:07;;;;;;;3.73;2.20;;;;;;;;;;5033656;28;20895;-70
2021/08/17 02:40:34;;;;;;;4.40;2.10;;;;;;;;;;5028987;28;20427;-69
2021/08/17 02:43:00;;;;;;;4.10;2.00;;;;;;;;;;5013231;28;20426;-70
2021/08/17 02:45:26;;;;;;;2.60;1.80;;;;;;;;;;5013412;28;20410;-69
2021/08/17 02:48:01;;;;;;;3.00;1.70;;;;;;;;;;5012640;28;20522;-70
2021/08/17 02:50:28;;;;;;;2.47;1.43;;;;;;;;;;5028109;28;20426;-70
2021/08/17 02:52:54;;;;;;;2.67;1.30;;;;;;;;;;5031420;28;20860;-70
2021/08/17 02:55:20;;;;;;;2.37;1.80;;;;;;;;;;5019494;28;20410;-70
2021/08/17 02:57:47;;;;;;;3.40;1.80;;;;;;;;;;5027712;28;20863;-69
2021/08/17 03:00:13;;;;;;;2.77;1.40;;;;;;;;;;5013926;28;20507;-69
2021/08/17 03:02:39;;;;;;;2.83;1.60;;;;;;;;;;5012073;28;20472;-69
2021/08/17 03:05:05;;;;;;;2.30;1.53;;;;;;;;;;5011313;28;20517;-70
2021/08/17 03:07:31;;;;;;;4.80;1.30;;;;;;;;;;5012313;28;20990;-69
2021/08/17 03:09:57;;;;;;;2.80;1.60;;;;;;;;;;5013643;28;20404;-70
2021/08/17 03:12:24;;;;;;;2.53;1.67;;;;;;;;;;5011802;28;20426;-70
2021/08/17 03:14:50;;;;;;;4.30;1.90;;;;;;;;;;5013010;28;20778;-70
2021/08/17 03:17:16;;;;;;;3.93;1.50;;;;;;;;;;5012517;28;20443;-70
2021/08/17 03:19:42;;;;;;;2.70;1.63;;;;;;;;;;5038319;23;20850;-71
2021/08/17 03:22:09;;;;;;;2.93;1.93;;;;;;;;;;5032265;28;20430;-71
2021/08/17 03:24:35;;;;;;;3.03;1.40;;;;;;;;;;5029557;28;20509;-71
2021/08/17 03:27:01;;;;;;;3.20;1.70;;;;;;;;;;5032274;28;20450;-71
2021/08/17 03:29:27;;;;;;;2.27;1.57;;;;;;;;;;5033042;28;20425;-71
2021/08/17 03:31:53;;;;;;;3.67;2.53;;;;;;;;;;5032185;28;20422;-71
2021/08/17 03:34:19;;;;;;;3.50;2.10;;;;;;;;;;5031624;28;20399;-71
2021/08/17 03:36:45;;;;;;;7.53;2.60;;;;;;;;;;5032269;28;20840;-71
2021/08/17 03:39:11;;;;;;;3.60;2.23;;;;;;;;;;5032931;28;20506;-71
2021/08/17 03:41:37;;;;;;;4.73;2.27;;;;;;;;;;5032001;28;20506;-71
2021/08/17 03:44:03;;;;;;;3.40;2.10;;;;;;;;;;5031876;28;20418;-71
2021/08/17 03:46:29;;;;;;;7.57;2.97;;;;;;;;;;5030526;28;20430;-71
2021/08/17 03:48:55;;;;;;;3.70;2.37;;;;;;;;;;5032786;28;20557;-71
2021/08/17 03:51:22;;;;;;;4.60;2.50;;;;;;;;;;5032027;28;20423;-71
2021/08/17 03:53:48;;;;;;;5.73;2.40;;;;;;;;;;5023941;28;20461;-71
2021/08/17 03:56:14;;;;;;;4.80;3.60;;;;;;;;;;5032184;28;20403;-72
2021/08/17 03:58:40;;;;;;;5.67;2.40;;;;;;;;;;5035621;28;20576;-71
2021/08/17 04:01:06;;;;;;;5.87;2.83;;;;;;;;;;5035771;28;20481;-71
2021/08/17 04:03:32;;;;;;;5.77;2.47;;;;;;;;;;5035234;28;20497;-71
2021/08/17 04:05:58;;;;;;;5.50;2.70;;;;;;;;;;5036501;28;20841;-71
2021/08/17 04:08:24;;;;;;;3.40;2.23;;;;;;;;;;5035421;28;20501;-71
2021/08/17 04:10:51;;;;;;;7.83;2.93;;;;;;;;;;5035650;28;20418;-71
2021/08/17 04:13:17;;;;;;;4.33;2.57;;;;;;;;;;5034761;28;20437;-71
2021/08/17 04:15:43;;;;;;;4.03;3.03;;;;;;;;;;5036545;28;20422;-71
2021/08/17 04:18:09;;;;;;;5.93;2.73;;;;;;;;;;5035414;28;20430;-71
2021/08/17 04:20:36;;;;;;;4.63;2.90;;;;;;;;;;5036155;28;20509;-71
2021/08/17 04:23:02;;;;;;;4.43;2.80;;;;;;;;;;5027068;28;20924;-71
2021/08/17 04:25:28;;;;;;;5.67;2.90;;;;;;;;;;5016379;28;20414;-73
2021/08/17 04:27:54;;;;;;;4.50;2.87;;;;;;;;;;5030018;28;20463;-74
2021/08/17 04:30:20;;;;;;;8.93;3.20;;;;;;;;;;5035169;28;20426;-74
2021/08/17 04:32:46;;;;;;;5.97;3.30;;;;;;;;;;5033700;28;20437;-74
2021/08/17 04:35:13;;;;;;;5.80;2.80;;;;;;;;;;5036098;28;20403;-74
2021/08/17 04:37:39;;;;;;;4.37;3.13;;;;;;;;;;5035325;28;20798;-74
2021/08/17 04:40:06;;;;;;;5.93;3.37;;;;;;;;;;5035823;28;20510;-74
2021/08/17 04:42:32;;;;;;;4.80;3.00;;;;;;;;;;5033840;28;20441;-74
2021/08/17 04:44:58;;;;;;;4.73;2.50;;;;;;;;;;5035649;28;20407;-74
2021/08/17 04:47:24;;;;;;;4.40;2.70;;;;;;;;;;5034973;28;20947;-74
2021/08/17 04:49:49;;;;;;;5.10;2.90;;;;;;;;;;5035800;28;20422;-74
2021/08/17 04:52:17;;;;;;;4.20;2.90;;;;;;;;;;5033460;28;20423;-74
2021/08/17 04:54:43;;;;;;;4.20;3.10;;;;;;;;;;5035674;28;20819;-75
2021/08/17 04:57:09;;;;;;;3.80;2.77;;;;;;;;;;5034196;28;20510;-74
2021/08/17 04:59:35;;;;;;;3.77;2.80;;;;;;;;;;5034721;28;20492;-73
2021/08/17 05:02:01;;;;;;;5.73;3.40;;;;;;;;;;5033383;28;20514;-74
2021/08/17 05:04:27;;;;;;;4.83;2.67;;;;;;;;;;5034022;28;20434;-74
2021/08/17 05:06:53;;;;;;;4.27;2.90;;;;;;;;;;5034420;28;20788;-74
2021/08/17 05:09:19;;;;;;;4.70;2.40;;;;;;;;;;5034172;28;20419;-74
2021/08/17 05:11:45;;;;;;;6.07;2.90;;;;;;;;;;5022787;28;20501;-74
2021/08/17 05:14:11;;;;;;;6.20;2.90;;;;;;;;;;5035515;28;20513;-75
2021/08/17 05:16:37;;;;;;;7.43;2.67;;;;;;;;;;5034323;28;20969;-75
2021/08/17 05:19:03;;;;;;;4.50;2.50;;;;;;;;;;5034113;28;20549;-74
2021/08/17 05:21:29;;;;;;;5.43;2.80;;;;;;;;;;5033299;28;20495;-76
2021/08/17 05:23:56;;;;;;;8.80;3.27;;;;;;;;;;5034900;28;20441;-74
2021/08/17 05:26:23;;;;;;;6.43;2.63;;;;;;;;;;5034346;28;20493;-74
2021/08/17 05:28:49;;;;;;;5.10;2.63;;;;;;;;;;5034120;28;20846;-74
2021/08/17 05:31:15;;;;;;;6.13;2.77;;;;;;;;;;5032920;28;20422;-74
2021/08/17 05:33:41;;;;;;;4.50;2.23;;;;;;;;;;5034071;28;20502;-74
2021/08/17 05:36:07;;;;;;;7.20;3.30;;;;;;;;;;5034994;28;20403;-74
2021/08/17 05:38:34;;;;;;;3.77;2.60;;;;;;;;;;5032579;28;20454;-74
2021/08/17 05:41:00;;;;;;;4.10;2.83;;;;;;;;;;5033380;28;20434;-74
2021/08/17 05:43:26;;;;;;;4.30;2.47;;;;;;;;;;5033936;28;20441;-74
2021/08/17 05:45:52;;;;;;;3.83;2.17;;;;;;;;;;5034615;28;20456;-74
2021/08/17 05:48:18;;;;;;;5.67;2.67;;;;;;;;;;5033598;28;20455;-74
2021/08/17 05:50:44;;;;;;;4.50;2.83;;;;;;;;;;5033168;28;20413;-73
2021/08/17 05:53:10;;;;;;;4.77;2.67;;;;;;;;;;5033963;28;20461;-74
2021/08/17 05:55:36;;;;;;;8.17;3.67;;;;;;;;;;5034706;28;20774;-73
2021/08/17 05:58:03;;;;;;;7.00;3.03;;;;;;;;;;5033620;28;20430;-74
2021/08/17 06:00:29;;;;;;;6.30;3.87;;;;;;;;;;5032870;28;20442;-74
2021/08/17 06:02:55;;;;;;;6.10;3.43;;;;;;;;;;5032912;28;20434;-73
2021/08/17 06:05:22;;;;;;;8.70;3.37;;;;;;;;;;5034193;28;20482;-72
2021/08/17 06:07:49;;;;;;;6.17;3.50;;;;;;;;;;5033227;28;20458;-73
2021/08/17 06:10:15;;;;;;;7.27;3.53;;;;;;;;;;5031832;28;20493;-74
2021/08/17 06:12:42;;;;;;;6.03;4.10;;;;;;;;;;5032529;28;20872;-74
2021/08/17 06:15:08;;;;;;;6.50;3.43;;;;;;;;;;5034039;28;20437;-73
2021/08/17 06:17:34;;;;;;;5.63;4.20;;;;;;;;;;5032468;28;20431;-74
2021/08/17 06:20:00;;;;;;;7.33;3.80;;;;;;;;;;5031993;28;20484;-74
2021/08/17 06:22:26;;;;;;;6.30;3.70;;;;;;;;;;5032231;28;20601;-74
2021/08/17 06:24:52;;;;;;;11.07;4.33;;;;;;;;;;5033895;28;20403;-74
2021/08/17 06:27:19;;;;;;;5.43;3.13;;;;;;;;;;5033009;28;20461;-74
2021/08/17 06:29:45;;;;;;;8.37;3.80;;;;;;;;;;5032648;28;20514;-73
2021/08/17 06:32:11;;;;;;;7.20;4.30;;;;;;;;;;5032954;28;22205;-73
2021/08/17 06:34:37;;;;;;;5.10;3.33;;;;;;;;;;5032911;28;20447;-74
2021/08/17 06:37:03;;;;;;;7.30;4.00;;;;;;;;;;5032739;28;20403;-74
2021/08/17 06:39:29;;;;;;;6.63;3.73;;;;;;;;;;5032020;28;20429;-74
2021/08/17 06:41:55;;;;;;;7.83;3.10;;;;;;;;;;5033104;28;20410;-74
2021/08/17 06:44:21;;;;;;;4.80;3.50;;;;;;;;;;5032302;28;20418;-74
2021/08/17 06:46:47;;;;;;;4.73;3.33;;;;;;;;;;5033424;28;20405;-74
2021/08/17 06:49:13;;;;;;;5.10;3.53;;;;;;;;;;5029461;28;20446;-74
2021/08/17 06:51:39;;;;;;;6.60;3.50;;;;;;;;;;5020443;28;20411;-75
2021/08/17 06:54:06;;;;;;;6.33;3.17;;;;;;;;;;5022409;28;20431;-74
2021/08/17 06:56:32;;;;;;;4.13;2.83;;;;;;;;;;5020134;28;20431;-74
2021/08/17 06:58:58;;;;;;;6.27;3.83;;;;;;;;;;5011455;28;20450;-75
2021/08/17 07:01:24;;;;;;;6.70;2.97;;;;;;;;;;5031796;28;20815;-75
2021/08/17 07:03:50;;;;;;;3.90;2.80;;;;;;;;;;5024235;28;20500;-74
2021/08/17 07:06:16;;;;;;;5.50;3.40;;;;;;;;;;5016255;28;20415;-75
2021/08/17 07:08:42;;;;;;;9.43;3.90;;;;;;;;;;5023005;28;20455;-75
2021/08/17 07:11:08;;;;;;;7.07;3.70;;;;;;;;;;5027079;28;20416;-74
2021/08/17 07:13:35;;;;;;;8.20;3.60;;;;;;;;;;5018585;28;20435;-75
2021/08/17 07:16:01;;;;;;;5.03;2.87;;;;;;;;;;5019441;28;20407;-75
2021/08/17 07:18:27;;;;;;;5.87;3.40;;;;;;;;;;5026115;28;20820;-75
2021/08/17 07:20:53;;;;;;;5.07;2.77;;;;;;;;;;5026578;28;20495;-76
2021/08/17 07:23:19;;;;;;;7.80;3.70;;;;;;;;;;5023687;28;20943;-75
2021/08/17 07:25:45;;;;;;;3.93;2.60;;;;;;;;;;5016952;28;20441;-75
2021/08/17 07:28:12;;;;;;;4.90;3.30;;;;;;;;;;5022332;28;20466;-75
2021/08/17 07:30:39;;;;;;;6.10;2.83;;;;;;;;;;5029135;28;20498;-75
2021/08/17 07:33:05;;;;;;;6.30;3.67;;;;;;;;;;5030444;28;20419;-75
2021/08/17 07:35:31;;;;;;;5.40;2.87;;;;;;;;;;5025452;28;20426;-75
2021/08/17 07:37:57;;;;;;;5.40;3.30;;;;;;;;;;5029573;28;20437;-75
2021/08/17 07:40:23;;;;;;;5.33;2.93;;;;;;;;;;5026701;28;20795;-75
2021/08/17 07:42:50;;;;;;;5.93;3.17;;;;;;;;;;5034624;28;20564;-74
2021/08/17 07:45:16;;;;;;;6.40;2.93;;;;;;;;;;5029030;28;20533;-75
2021/08/17 07:47:42;;;;;;;4.00;2.93;;;;;;;;;;5032217;28;20911;-74
2021/08/17 07:50:09;;;;;;;6.00;3.70;;;;;;;;;;5025678;28;20428;-75
2021/08/17 07:52:35;;;;;;;5.60;2.93;;;;;;;;;;5026770;28;20461;-74
2021/08/17 07:55:03;;;;;;;5.33;3.80;;;;;;;;;;5027607;28;20461;-75
2021/08/17 07:57:29;;;;;;;4.73;3.03;;;;;;;;;;5026145;28;20426;-75
2021/08/17 07:59:56;;;;;;;5.30;2.87;;;;;;;;;;5035279;28;20464;-75
2021/08/17 08:02:22;;;;;;;5.97;2.70;;;;;;;;;;5036301;28;20770;-76
2021/08/17 08:04:48;;;;;;;5.37;3.23;;;;;;;;;;5023627;28;20767;-75
2021/08/17 08:07:14;;;;;;;6.40;3.50;;;;;;;;;;5027702;28;20918;-75
2021/08/17 08:09:40;;;;;;;4.37;3.00;;;;;;;;;;5034885;28;20529;-75
2021/08/17 08:12:07;;;;;;;6.60;3.20;;;;;;;;;;5030100;28;20735;-75
2021/08/17 08:14:33;;;;;;;6.60;3.13;;;;;;;;;;5034339;28;20851;-74
2021/08/17 08:16:59;;;;;;;4.97;3.07;;;;;;;;;;5026102;28;20406;-75
2021/08/17 08:19:25;;;;;;;4.90;2.87;;;;;;;;;;5034807;28;20476;-75
2021/08/17 08:21:52;;;;;;;4.47;2.97;;;;;;;;;;5034109;28;20411;-76
2021/08/17 08:24:18;;;;;;;4.60;2.70;;;;;;;;;;5031066;28;20415;-75
2021/08/17 08:26:44;;;;;;;4.70;2.80;;;;;;;;;;5029842;28;20484;-75
2021/08/17 08:29:10;;;;;;;7.13;3.50;;;;;;;;;;5022462;28;20522;-75
2021/08/17 08:31:36;;;;;;;4.50;2.90;;;;;;;;;;5029068;28;20421;-75
2021/08/17 08:34:02;;;;;;;5.73;2.43;;;;;;;;;;5020009;28;20509;-74
2021/08/17 08:36:28;;;;;;;5.77;3.13;;;;;;;;;;5030056;28;20409;-75
2021/08/17 08:38:54;;;;;;;7.03;3.20;;;;;;;;;;5034499;28;20525;-75
2021/08/17 08:41:20;;;;;;;3.50;2.43;;;;;;;;;;5031995;28;20429;-75
2021/08/17 08:43:47;;;;;;;5.63;2.87;;;;;;;;;;5028787;28;20433;-75
2021/08/17 08:46:20;;;;;;;4.50;2.80;;;;;;;;;;5022232;28;20431;-75
2021/08/17 08:48:47;;;;;;;5.60;2.60;;;;;;;;;;5032860;28;20470;-75
2021/08/17 08:51:14;;;;;;;4.47;3.07;;;;;;;;;;5031485;28;20422;-75
2021/08/17 08:53:40;;;;;;;11.67;3.73;;;;;;;;;;5017066;28;20432;-76
2021/08/17 08:56:06;;;;;;;5.00;2.90;;;;;;;;;;5033672;28;20422;-75
2021/08/17 08:58:32;;;;;;;6.70;3.13;;;;;;;;;;5031164;28;20442;-75
2021/08/17 09:00:58;;;;;;;6.20;2.80;;;;;;;;;;5026639;28;20419;-75
2021/08/17 09:03:51;;;;;;;7.23;2.77;;;;;;;;;;5033752;28;20433;-75
2021/08/17 09:06:23;;;;;;;7.50;2.80;;;;;;;;;;5018670;28;20465;-76
2021/08/17 09:09:04;;;;;;;6.00;3.07;;;;;;;;;;5023469;28;20854;-75
2021/08/17 09:11:30;;;;;;;11.23;3.57;;;;;;;;;;5032635;28;20414;-75
2021/08/17 09:13:56;;;;;;;7.03;2.47;;;;;;;;;;5031544;28;20514;-75
2021/08/17 09:16:23;;;;;;;6.17;2.90;;;;;;;;;;5026691;28;20849;-75
2021/08/17 09:18:52;;;;;;;4.73;2.23;;;;;;;;;;5028409;28;20473;-74
2021/08/17 09:21:18;;;;;;;4.77;2.90;;;;;;;;;;5022113;28;20502;-74
2021/08/17 09:23:44;;;;;;;5.47;2.77;;;;;;;;;;5029310;28;20439;-74
2021/08/17 09:26:28;;;;;;;4.60;3.10;;;;;;;;;;5026306;28;20415;-74
2021/08/17 09:28:58;;;;;;;6.67;2.50;;;;;;;;;;5021676;28;20475;-74
2021/08/17 09:31:31;;;;;;;4.70;2.70;;;;;;;;;;5026077;28;20419;-77
2021/08/17 09:33:57;;;;;;;5.60;2.80;;;;;;;;;;5026021;28;20415;-74
2021/08/17 09:36:23;;;;;;;5.00;2.77;;;;;;;;;;5026139;28;20399;-75
2021/08/17 09:38:49;;;;;;;5.63;2.93;;;;;;;;;;5029961;28;20504;-74
2021/08/17 09:41:20;;;;;;;6.60;3.33;;;;;;;;;;5025218;28;20481;-75
2021/08/17 09:44:03;;;;;;;4.47;2.83;;;;;;;;;;5025135;28;20414;-74
2021/08/17 09:46:32;;;;;;;4.17;2.60;;;;;;;;;;5022929;28;20418;-74
2021/08/17 09:49:16;;;;;;;4.60;3.17;;;;;;;;;;5030243;28;20466;-74
2021/08/17 09:51:42;;;;;;;5.70;3.53;;;;;;;;;;5029315;28;20425;-75
2021/08/17 09:54:22;;;;;;;7.53;3.20;;;;;;;;;;5023150;28;20423;-74
2021/08/17 09:56:59;;;;;;;6.47;2.60;;;;;;;;;;5030744;28;20434;-73
2021/08/17 09:59:26;;;;;;;4.37;2.60;;;;;;;;;;5029657;28;20516;-74
2021/08/17 10:01:52;;;;;;;5.40;3.00;;;;;;;;;;5022315;28;20418;-73
2021/08/17 10:04:19;;;;;;;5.13;2.83;;;;;;;;;;5027550;28;20939;-74
2021/08/17 10:06:45;;;;;;;4.97;3.20;;;;;;;;;;5026980;28;20423;-76
2021/08/17 10:09:14;;;;;;;7.30;2.43;;;;;;;;;;5028014;28;20576;-73
2021/08/17 10:11:41;;;;;;;6.70;3.10;;;;;;;;;;5026205;28;20498;-74
2021/08/17 10:14:07;;;;;;;8.27;3.57;;;;;;;;;;5025344;28;20406;-74
2021/08/17 10:16:33;;;;;;;6.03;3.13;;;;;;;;;;5023028;28;20416;-74
2021/08/17 10:19:00;;;;;;;4.37;2.60;;;;;;;;;;5028278;28;20775;-75
2021/08/17 10:21:26;;;;;;;5.47;2.93;;;;;;;;;;5028195;28;20423;-75
2021/08/17 10:23:52;;;;;;;5.83;3.43;;;;;;;;;;5032075;28;20429;-73
2021/08/17 10:26:34;;;;;;;3.93;2.20;;;;;;;;;;5024059;28;20445;-74
2021/08/17 10:29:00;;;;;;;5.43;2.83;;;;;;;;;;5020286;28;20466;-75
2021/08/17 10:31:32;;;;;;;5.80;2.83;;;;;;;;;;5023245;28;20423;-74
2021/08/17 10:34:09;;;;;;;7.87;3.50;;;;;;;;;;5029072;28;20426;-76
2021/08/17 10:36:38;;;;;;;3.80;2.40;;;;;;;;;;5018103;28;20423;-75
2021/08/17 10:39:27;;;;;;;7.27;3.53;;;;;;;;;;5019723;28;20519;-73
2021/08/17 10:41:54;;;;;;;5.40;2.83;;;;;;;;;;5017638;28;20430;-76
2021/08/17 10:44:21;;;;;;;5.00;3.00;;;;;;;;;;5029965;28;20434;-74
2021/08/17 10:46:51;;;;;;;4.57;2.83;;;;;;;;;;5026707;28;20437;-74
2021/08/17 10:49:24;;;;;;;5.30;3.00;;;;;;;;;;5027815;28;20461;-67
2021/08/17 10:51:51;;;;;;;6.03;2.90;;;;;;;;;;5014725;28;20437;-72
2021/08/17 10:54:17;;;;;;;4.83;2.90;;;;;;;;;;5028322;28;20410;-70
2021/08/17 10:56:47;;;;;;;8.70;3.50;;;;;;;;;;5023804;28;20429;-73
2021/08/17 10:59:14;;;;;;;8.40;3.20;;;;;;;;;;5024456;28;20452;-71
2021/08/17 11:01:50;;;;;;;4.87;2.57;;;;;;;;;;5027862;28;20419;-70
2021/08/17 11:04:17;;;;;;;5.80;2.80;;;;;;;;;;5030521;28;20441;-70
2021/08/17 11:06:50;;;;;;;5.27;3.30;;;;;;;;;;5026674;28;20453;-70
2021/08/17 11:09:16;;;;;;;5.60;3.07;;;;;;;;;;5021764;28;20975;-67
2021/08/17 11:11:44;;;;;;;6.93;3.30;;;;;;;;;;5017478;28;20443;-77
2021/08/17 11:14:17;;;;;;;6.63;2.50;;;;;;;;;;5027988;28;20427;-73
2021/08/17 11:16:45;;;;;;;5.30;2.60;;;;;;;;;;5030317;28;20794;-73
2021/08/17 11:19:11;;;;;;;4.40;2.83;;;;;;;;;;5027375;28;20504;-69
2021/08/17 11:21:37;;;;;;;6.07;3.10;;;;;;;;;;5023195;28;20510;-70
2021/08/17 11:24:06;;;;;;;6.93;2.97;;;;;;;;;;5034200;28;20484;-73
2021/08/17 11:26:32;;;;;;;4.73;2.50;;;;;;;;;;5041684;28;20403;-71
2021/08/17 11:28:58;;;;;;;8.07;2.47;;;;;;;;;;5024460;28;20558;-71
2021/08/17 11:31:24;;;;;;;4.70;2.40;;;;;;;;;;5030119;28;20940;-71
2021/08/17 11:33:50;;;;;;;4.00;2.30;;;;;;;;;;5022880;28;20430;-71
2021/08/17 11:36:20;;;;;;;4.27;2.90;;;;;;;;;;5026284;28;20514;-73
2021/08/17 11:38:46;;;;;;;5.67;2.60;;;;;;;;;;5019526;28;20513;-71
2021/08/17 11:41:28;;;;;;;4.50;2.50;;;;;;;;;;5022954;28;20436;-71
2021/08/17 11:44:11;;;;;;;4.83;2.17;;;;;;;;;;5015899;28;20482;-69
2021/08/17 11:46:37;;;;;;;5.10;2.97;;;;;;;;;;5033811;28;20434;-70
2021/08/17 11:49:38;;;;;;;3.77;1.90;;;;;;;;;;5023856;28;20494;-69
2021/08/17 11:52:05;;;;;;;5.07;2.80;;;;;;;;;;4969249;28;20464;-71
2021/08/17 11:54:32;;;;;;;4.13;2.03;;;;;;;;;;5018901;28;20453;-70
2021/08/17 11:56:59;;;;;;;5.97;3.10;;;;;;;;;;5026680;28;20427;-72
2021/08/17 11:59:25;;;;;;;5.77;4.43;;;;;;;;;;5030235;28;20447;-72
2021/08/17 12:01:58;;;;;;;4.60;2.93;;;;;;;;;;5022306;28;20432;-73
2021/08/17 12:04:24;;;;;;;4.10;2.67;;;;;;;;;;5029445;28;20426;-74
2021/08/17 12:07:06;;;;;;;6.60;2.73;;;;;;;;;;5028524;28;20464;-73
2021/08/17 12:09:35;;;;;;;3.30;2.17;;;;;;;;;;5030171;28;20450;-74
2021/08/17 12:12:01;;;;;;;4.40;2.87;;;;;;;;;;5026478;28;20419;-74
2021/08/17 12:14:27;;;;;;;4.30;2.33;;;;;;;;;;5027018;28;20461;-74
2021/08/17 12:16:54;;;;;;;4.20;2.23;;;;;;;;;;5027697;28;20423;-74
2021/08/17 12:19:20;;;;;;;4.67;2.70;;;;;;;;;;5039997;28;20967;-74
2021/08/17 12:21:46;;;;;;;5.00;2.80;;;;;;;;;;5031322;28;20528;-75
2021/08/17 12:24:29;;;;;;;5.90;3.27;;;;;;;;;;5037964;28;20432;-74
2021/08/17 12:27:02;;;;;;;5.97;2.90;;;;;;;;;;5035091;28;20423;-73
2021/08/17 12:29:41;;;;;;;5.30;3.00;;;;;;;;;;5042581;28;20970;-73
2021/08/17 12:32:17;;;;;;;5.13;3.13;;;;;;;;;;5044540;28;20417;-73
2021/08/17 12:34:45;;;;;;;9.00;3.50;;;;;;;;;;5040291;28;20407;-75
2021/08/17 12:37:27;;;;;;;5.40;3.10;;;;;;;;;;5034916;28;20494;-75
2021/08/17 12:39:54;;;;;;;6.83;2.53;;;;;;;;;;5025820;28;20474;-75
2021/08/17 12:42:21;;;;;;;4.87;2.90;;;;;;;;;;5033156;28;20418;-75
2021/08/17 12:44:48;;;;;;;6.50;3.00;;;;;;;;;;5034970;28;20494;-75
2021/08/17 12:47:23;;;;;;;5.80;3.03;;;;;;;;;;5030574;28;20861;-75
2021/08/17 12:49:54;;;;;;;4.40;2.93;;;;;;;;;;5027420;28;20470;-75
2021/08/17 12:52:26;;;;;;;6.50;2.90;;;;;;;;;;5033479;28;20414;-74
2021/08/17 12:54:53;;;;;;;5.90;3.00;;;;;;;;;;5028101;28;20471;-77
2021/08/17 12:57:20;;;;;;;5.20;3.17;;;;;;;;;;5033238;28;20426;-76
2021/08/17 12:59:47;;;;;;;4.30;2.67;;;;;;;;;;5025926;28;20476;-77
2021/08/17 13:02:13;;;;;;;4.63;2.67;;;;;;;;;;5027069;28;20930;-76
2021/08/17 13:04:39;;;;;;;5.00;3.07;;;;;;;;;;5029713;28;20462;-77
2021/08/17 13:07:05;;;;;;;7.23;3.10;;;;;;;;;;5035258;28;20414;-76
2021/08/17 13:09:31;;;;;;;7.33;3.23;;;;;;;;;;5033512;28;20525;-76
2021/08/17 13:11:57;;;;;;;4.37;2.90;;;;;;;;;;5024358;28;20406;-77
2021/08/17 13:14:23;;;;;;;5.70;3.10;;;;;;;;;;5024846;28;20449;-77
2021/08/17 13:16:49;;;;;;;5.77;3.00;;;;;;;;;;5022646;28;20778;-77
2021/08/17 13:19:15;;;;;;;5.23;3.40;;;;;;;;;;5024693;28;20501;-76
2021/08/17 13:21:41;;;;;;;6.20;2.70;;;;;;;;;;5034011;28;20446;-77
2021/08/17 13:24:07;;;;;;;5.13;3.07;;;;;;;;;;5023081;28;20419;-77
2021/08/17 13:26:33;;;;;;;5.63;3.23;;;;;;;;;;5026713;28;20464;-77
2021/08/17 13:28:59;;;;;;;5.73;3.60;;;;;;;;;;5032406;28;20834;-78
2021/08/17 13:31:26;;;;;;;5.80;3.30;;;;;;;;;;5025466;28;20518;-77
2021/08/17 13:33:52;;;;;;;5.13;3.27;;;;;;;;;;5025547;28;20484;-77
2021/08/17 13:36:18;;;;;;;4.13;2.80;;;;;;;;;;5023198;28;20411;-71
2021/08/17 13:38:44;;;;;;;5.50;2.83;;;;;;;;;;5022084;28;20438;-72
2021/08/17 13:41:11;;;;;;;4.53;2.80;;;;;;;;;;5026511;28;20430;-70
2021/08/17 13:43:37;;;;;;;4.90;2.70;;;;;;;;;;5026012;28;20430;-71
2021/08/17 13:46:03;;;;;;;4.60;2.90;;;;;;;;;;5026036;28;20427;-73
2021/08/17 13:48:30;;;;;;;5.00;3.10;;;;;;;;;;5023501;28;20469;-72
2021/08/17 13:50:56;;;;;;;5.60;3.30;;;;;;;;;;5020847;28;20429;-72
2021/08/17 13:53:23;;;;;;;7.77;3.50;;;;;;;;;;5018434;28;20430;-71
2021/08/17 13:55:49;;;;;;;4.80;2.47;;;;;;;;;;5028618;28;21253;-70
2021/08/17 13:58:15;;;;;;;4.60;2.77;;;;;;;;;;5024935;28;20498;-71
2021/08/17 14:00:42;;;;;;;3.90;2.50;;;;;;;;;;5029679;28;20463;-73
2021/08/17 14:03:08;;;;;;;5.30;3.30;;;;;;;;;;5022751;28;20927;-71
2021/08/17 14:05:34;;;;;;;4.70;3.03;;;;;;;;;;5029002;28;20837;-71
2021/08/17 14:08:00;;;;;;;5.17;2.60;;;;;;;;;;5027472;28;20811;-71
2021/08/17 14:10:26;;;;;;;4.57;2.53;;;;;;;;;;5024457;28;20439;-71
2021/08/17 14:12:53;;;;;;;4.60;2.83;;;;;;;;;;5020385;28;20426;-71
2021/08/17 14:15:19;;;;;;;5.97;3.10;;;;;;;;;;5030269;28;20438;-71
2021/08/17 14:17:45;;;;;;;4.20;3.03;;;;;;;;;;5024562;28;20418;-71
2021/08/17 14:20:11;;;;;;;4.97;2.83;;;;;;;;;;5023054;28;20932;-70
2021/08/17 14:22:37;;;;;;;4.80;2.97;;;;;;;;;;5020821;28;20428;-70
2021/08/17 14:25:04;;;;;;;4.30;2.60;;;;;;;;;;5023251;28;20437;-71
2021/08/17 14:27:30;;;;;;;5.43;2.77;;;;;;;;;;5021840;28;20538;-71
2021/08/17 14:29:56;;;;;;;3.63;2.70;;;;;;;;;;5030686;28;20858;-71
2021/08/17 14:32:22;;;;;;;4.33;2.60;;;;;;;;;;5026964;28;20949;-71
2021/08/17 14:34:48;;;;;;;6.00;3.43;;;;;;;;;;5025777;28;20498;-72
2021/08/17 14:37:14;;;;;;;4.17;2.50;;;;;;;;;;5025813;28;20431;-71
2021/08/17 14:39:41;;;;;;;7.30;2.83;;;;;;;;;;5021811;28;20957;-72
2021/08/17 14:42:08;;;;;;;4.10;2.50;;;;;;;;;;5024270;28;20426;-70